Time;durP1;ratioP1;P1;durP2;ratioP2;P2;SDS_P1;SDS_P2;PMS_P1;PMS_P2;Temp;Humidity;BMP_temperature;BMP_pressure;BME280_temperature;BME280_humidity;BME280_pressure;Samples;Min_cycle;Max_cycle;Signal;HPM_P1;HPM_P2
2022/08/18 00:01:22;;;;;;;18.60;9.88;;;;;;;;;;4977233;28;20065;-77
2022/08/18 00:03:48;;;;;;;21.30;10.20;;;;;;;;;;5039552;28;20105;-77
2022/08/18 00:06:14;;;;;;;13.43;8.70;;;;;;;;;;4992816;28;20043;-76
2022/08/18 00:08:40;;;;;;;18.35;9.55;;;;;;;;;;5007687;28;20042;-76
2022/08/18 00:11:07;;;;;;;16.60;10.30;;;;;;;;;;5002298;28;20043;-77
2022/08/18 00:13:33;;;;;;;16.45;9.65;;;;;;;;;;4993073;28;20065;-78
2022/08/18 00:15:59;;;;;;;13.45;8.27;;;;;;;;;;4994042;28;20049;-77
2022/08/18 00:18:25;;;;;;;16.55;8.90;;;;;;;;;;5007760;28;20074;-77
2022/08/18 00:20:51;;;;;;;15.25;9.02;;;;;;;;;;5005042;28;20050;-77
2022/08/18 00:23:17;;;;;;;18.63;8.70;;;;;;;;;;4991825;28;20042;-76
2022/08/18 00:25:44;;;;;;;16.10;8.75;;;;;;;;;;5029392;28;20639;-77
2022/08/18 00:28:11;;;;;;;17.52;9.65;;;;;;;;;;4984269;28;20477;-77
2022/08/18 00:30:37;;;;;;;15.85;8.75;;;;;;;;;;4979024;28;20053;-77
2022/08/18 00:33:03;;;;;;;15.43;7.80;;;;;;;;;;5000930;28;20093;-77
2022/08/18 00:35:31;;;;;;;18.10;8.43;;;;;;;;;;5009613;28;20169;-76
2022/08/18 00:37:58;;;;;;;21.13;8.38;;;;;;;;;;4984786;28;20066;-76
2022/08/18 00:40:27;;;;;;;17.23;8.02;;;;;;;;;;5008867;28;20042;-77
2022/08/18 00:42:58;;;;;;;14.40;8.50;;;;;;;;;;5007288;28;20034;-76
2022/08/18 00:45:28;;;;;;;16.55;8.65;;;;;;;;;;5011954;23;20054;-85
2022/08/18 00:47:54;;;;;;;13.57;8.68;;;;;;;;;;4966940;28;20089;-85
2022/08/18 00:50:23;;;;;;;19.58;8.50;;;;;;;;;;4998851;28;20046;-85
2022/08/18 00:52:52;;;;;;;12.45;7.63;;;;;;;;;;4971270;28;20130;-85
2022/08/18 00:55:19;;;;;;;11.48;6.75;;;;;;;;;;4998915;28;20107;-86
2022/08/18 00:57:46;;;;;;;12.02;7.20;;;;;;;;;;4968947;28;20042;-86
2022/08/18 01:00:13;;;;;;;14.98;7.80;;;;;;;;;;4971278;28;20047;-85
2022/08/18 01:02:42;;;;;;;9.77;6.85;;;;;;;;;;4972302;28;20504;-85
2022/08/18 01:05:17;;;;;;;12.10;7.55;;;;;;;;;;4971245;28;20042;-86
2022/08/18 01:07:44;;;;;;;14.45;7.47;;;;;;;;;;5001152;28;20097;-85
2022/08/18 01:10:15;;;;;;;14.85;8.27;;;;;;;;;;5002697;28;20058;-85
2022/08/18 01:12:41;;;;;;;13.73;8.05;;;;;;;;;;4968687;28;20082;-86
2022/08/18 01:15:08;;;;;;;11.32;7.63;;;;;;;;;;4971876;28;20087;-85
2022/08/18 01:23:12;;;;;;;15.05;8.13;;;;;;;;;;5002565;28;20564;-85
2022/08/18 01:28:23;;;;;;;10.13;8.30;;;;;;;;;;5003171;28;20050;-85
2022/08/18 01:30:52;;;;;;;12.18;8.23;;;;;;;;;;4970449;28;20170;-86
2022/08/18 01:33:18;;;;;;;14.30;8.52;;;;;;;;;;4972133;28;20460;-85
2022/08/18 01:35:49;;;;;;;12.80;8.27;;;;;;;;;;4969983;28;20039;-85
2022/08/18 01:38:19;;;;;;;13.35;8.68;;;;;;;;;;4977523;28;20053;-85
2022/08/18 01:40:46;;;;;;;11.32;8.70;;;;;;;;;;4976569;28;20074;-85
2022/08/18 01:43:12;;;;;;;11.98;8.52;;;;;;;;;;4978132;28;20047;-85
2022/08/18 01:45:39;;;;;;;11.45;8.77;;;;;;;;;;4977293;28;20066;-85
2022/08/18 01:48:05;;;;;;;17.90;8.48;;;;;;;;;;4977151;28;20499;-85
2022/08/18 01:50:35;;;;;;;19.17;7.93;;;;;;;;;;4975738;28;20125;-85
2022/08/18 01:53:04;;;;;;;11.70;8.15;;;;;;;;;;4977434;28;20082;-85
2022/08/18 01:55:30;;;;;;;11.45;8.05;;;;;;;;;;4977396;28;20050;-85
2022/08/18 01:57:56;;;;;;;11.68;8.23;;;;;;;;;;5008635;28;20047;-85
2022/08/18 02:00:23;;;;;;;10.20;7.68;;;;;;;;;;4975724;28;20039;-85
2022/08/18 02:02:50;;;;;;;8.85;7.85;;;;;;;;;;4977373;28;20054;-85
2022/08/18 02:05:22;;;;;;;12.52;8.65;;;;;;;;;;4972878;28;20105;-85
2022/08/18 02:07:48;;;;;;;11.48;8.77;;;;;;;;;;4977971;28;20043;-85
2022/08/18 02:10:14;;;;;;;13.48;8.27;;;;;;;;;;4977407;28;20050;-85
2022/08/18 02:12:41;;;;;;;10.70;7.43;;;;;;;;;;4976463;28;20035;-85
2022/08/18 02:15:07;;;;;;;14.52;8.60;;;;;;;;;;4975485;28;20389;-86
2022/08/18 02:17:38;;;;;;;14.55;8.77;;;;;;;;;;4975738;28;20050;-85
2022/08/18 02:20:05;;;;;;;12.57;8.73;;;;;;;;;;4976843;28;20080;-85
2022/08/18 02:22:31;;;;;;;12.63;9.00;;;;;;;;;;4976730;28;20684;-85
2022/08/18 02:24:57;;;;;;;11.93;8.77;;;;;;;;;;4975960;28;20174;-85
2022/08/18 02:27:23;;;;;;;12.65;8.80;;;;;;;;;;4976985;28;20070;-85
2022/08/18 02:29:49;;;;;;;16.05;9.50;;;;;;;;;;4975903;28;20051;-85
2022/08/18 02:32:15;;;;;;;12.45;9.10;;;;;;;;;;5009428;28;20042;-85
2022/08/18 02:34:42;;;;;;;14.27;8.52;;;;;;;;;;4975411;28;20053;-85
2022/08/18 02:37:08;;;;;;;15.35;9.63;;;;;;;;;;4976448;28;20369;-85
2022/08/18 02:39:36;;;;;;;13.93;8.57;;;;;;;;;;4974382;28;20155;-85
2022/08/18 02:42:04;;;;;;;15.38;9.95;;;;;;;;;;5008488;28;20043;-85
2022/08/18 02:44:30;;;;;;;15.13;9.75;;;;;;;;;;5007800;28;20113;-85
2022/08/18 02:46:57;;;;;;;10.48;8.30;;;;;;;;;;4977063;28;20483;-85
2022/08/18 02:49:23;;;;;;;14.65;9.07;;;;;;;;;;4970858;28;20579;-85
2022/08/18 02:51:50;;;;;;;16.00;9.02;;;;;;;;;;4973100;28;20098;-85
2022/08/18 02:54:17;;;;;;;15.70;9.18;;;;;;;;;;4973025;28;20046;-85
2022/08/18 02:56:44;;;;;;;13.57;8.75;;;;;;;;;;4972987;28;20051;-85
2022/08/18 02:59:15;;;;;;;14.65;9.43;;;;;;;;;;4972917;28;20054;-85
2022/08/18 03:01:42;;;;;;;14.75;9.48;;;;;;;;;;4974092;28;20093;-85
2022/08/18 03:04:09;;;;;;;13.30;8.77;;;;;;;;;;4972535;28;20051;-85
2022/08/18 03:06:36;;;;;;;13.35;7.97;;;;;;;;;;4973737;28;20097;-86
2022/08/18 03:09:03;;;;;;;13.95;7.95;;;;;;;;;;4973383;28;20121;-85
2022/08/18 03:11:30;;;;;;;14.85;8.00;;;;;;;;;;4971571;28;20070;-85
2022/08/18 03:13:56;;;;;;;15.93;8.40;;;;;;;;;;5004152;28;20500;-85
2022/08/18 03:16:23;;;;;;;12.48;8.25;;;;;;;;;;4974173;28;20055;-85
2022/08/18 03:18:50;;;;;;;11.77;7.43;;;;;;;;;;4971460;28;20051;-85
2022/08/18 03:21:20;;;;;;;12.63;7.60;;;;;;;;;;4974229;28;20051;-85
2022/08/18 03:23:46;;;;;;;10.45;6.97;;;;;;;;;;4972442;28;20099;-85
2022/08/18 03:26:13;;;;;;;13.07;7.47;;;;;;;;;;4971208;28;20530;-85
2022/08/18 03:28:39;;;;;;;13.90;6.90;;;;;;;;;;5003937;28;20039;-85
2022/08/18 03:31:06;;;;;;;14.48;6.68;;;;;;;;;;4972287;28;20050;-85
2022/08/18 03:33:32;;;;;;;10.75;6.00;;;;;;;;;;4972397;28;20054;-85
2022/08/18 03:36:05;;;;;;;11.70;6.03;;;;;;;;;;4971264;28;20412;-85
2022/08/18 03:38:31;;;;;;;14.38;6.15;;;;;;;;;;4973733;28;20046;-85
2022/08/18 03:40:57;;;;;;;14.20;5.75;;;;;;;;;;4971257;28;20054;-85
2022/08/18 03:43:23;;;;;;;9.65;6.20;;;;;;;;;;4971631;28;20130;-85
2022/08/18 03:45:49;;;;;;;12.15;5.68;;;;;;;;;;4973288;28;20129;-85
2022/08/18 03:48:16;;;;;;;8.40;5.35;;;;;;;;;;4972785;28;20043;-85
2022/08/18 03:50:45;;;;;;;9.30;5.25;;;;;;;;;;4970056;28;20108;-85
2022/08/18 03:53:11;;;;;;;12.93;6.13;;;;;;;;;;4973942;28;20050;-85
2022/08/18 03:55:40;;;;;;;10.45;6.20;;;;;;;;;;4972558;28;20061;-85
2022/08/18 03:58:06;;;;;;;13.55;6.13;;;;;;;;;;4973048;28;20062;-85
2022/08/18 04:00:32;;;;;;;13.27;5.82;;;;;;;;;;4969707;28;20074;-85
2022/08/18 04:03:01;;;;;;;30.10;6.50;;;;;;;;;;4971247;28;20133;-85
2022/08/18 04:05:28;;;;;;;16.40;6.00;;;;;;;;;;4972919;28;20047;-85
2022/08/18 04:07:54;;;;;;;15.90;6.18;;;;;;;;;;4973006;28;20052;-85
2022/08/18 04:10:20;;;;;;;14.50;6.53;;;;;;;;;;4972580;28;20047;-85
2022/08/18 04:12:46;;;;;;;13.98;5.80;;;;;;;;;;4972693;28;20084;-85
2022/08/18 04:15:12;;;;;;;13.00;5.40;;;;;;;;;;4970940;28;20043;-85
2022/08/18 04:17:38;;;;;;;11.10;4.97;;;;;;;;;;5002940;28;20174;-85
2022/08/18 04:20:04;;;;;;;12.68;6.00;;;;;;;;;;4972623;28;20157;-85
2022/08/18 04:22:33;;;;;;;14.45;6.10;;;;;;;;;;4971245;28;20057;-85
2022/08/18 04:25:00;;;;;;;13.57;5.78;;;;;;;;;;4970038;28;20050;-85
2022/08/18 04:27:26;;;;;;;12.75;5.10;;;;;;;;;;4971452;28;20149;-85
2022/08/18 04:29:55;;;;;;;14.95;5.88;;;;;;;;;;4986957;28;20057;-85
2022/08/18 04:32:21;;;;;;;10.73;5.78;;;;;;;;;;4970747;28;20049;-85
2022/08/18 04:34:47;;;;;;;15.30;6.07;;;;;;;;;;4971787;28;20385;-85
2022/08/18 04:37:14;;;;;;;16.80;6.35;;;;;;;;;;4970900;28;20268;-85
2022/08/18 04:39:40;;;;;;;16.23;6.20;;;;;;;;;;5018498;28;20214;-85
2022/08/18 04:42:07;;;;;;;16.23;6.60;;;;;;;;;;4970999;28;20050;-85
2022/08/18 04:44:34;;;;;;;17.85;6.50;;;;;;;;;;4971090;28;20069;-85
2022/08/18 04:47:01;;;;;;;13.20;5.43;;;;;;;;;;4970169;28;20055;-85
2022/08/18 04:49:27;;;;;;;14.35;5.55;;;;;;;;;;4970868;28;20054;-85
2022/08/18 04:54:39;;;;;;;14.20;5.70;;;;;;;;;;5001889;28;20559;-85
2022/08/18 04:57:06;;;;;;;13.85;6.13;;;;;;;;;;4971894;28;20385;-85
2022/08/18 04:59:32;;;;;;;13.43;5.65;;;;;;;;;;4971786;28;20142;-85
2022/08/18 05:02:01;;;;;;;13.05;6.38;;;;;;;;;;4967452;28;20081;-85
2022/08/18 05:04:28;;;;;;;14.07;6.18;;;;;;;;;;4972206;28;20492;-85
2022/08/18 05:06:54;;;;;;;13.25;6.63;;;;;;;;;;4971881;28;20043;-85
2022/08/18 05:09:20;;;;;;;12.15;7.25;;;;;;;;;;5002768;28;20050;-85
2022/08/18 05:11:46;;;;;;;17.73;7.13;;;;;;;;;;4971140;28;20054;-85
2022/08/18 05:14:12;;;;;;;16.77;6.90;;;;;;;;;;4971397;28;20182;-85
2022/08/18 05:16:38;;;;;;;24.35;7.53;;;;;;;;;;5001884;28;20039;-85
2022/08/18 05:19:10;;;;;;;13.98;6.35;;;;;;;;;;4972046;28;20399;-85
2022/08/18 05:21:36;;;;;;;19.83;6.15;;;;;;;;;;4952396;29;20066;-85
2022/08/18 05:24:03;;;;;;;13.20;5.28;;;;;;;;;;4965382;28;20047;-85
2022/08/18 05:26:29;;;;;;;13.05;5.20;;;;;;;;;;4970199;28;20055;-85
2022/08/18 05:28:55;;;;;;;9.85;4.68;;;;;;;;;;4968233;28;20038;-85
2022/08/18 05:31:23;;;;;;;11.10;4.75;;;;;;;;;;4971311;28;20716;-85
2022/08/18 05:33:49;;;;;;;10.30;5.00;;;;;;;;;;4971782;28;20047;-85
2022/08/18 05:36:36;;;;;;;7.22;4.15;;;;;;;;;;4969952;28;20038;-85
2022/08/18 05:39:10;;;;;;;5.10;3.33;;;;;;;;;;4971207;28;20077;-85
2022/08/18 05:41:40;;;;;;;8.38;3.45;;;;;;;;;;5002856;28;20055;-85
2022/08/18 05:44:08;;;;;;;7.25;3.45;;;;;;;;;;5000622;28;20055;-85
2022/08/18 05:46:38;;;;;;;8.50;3.25;;;;;;;;;;4966569;28;20445;-85
2022/08/18 05:49:04;;;;;;;6.68;3.50;;;;;;;;;;4963571;28;20066;-85
2022/08/18 05:51:34;;;;;;;7.43;3.80;;;;;;;;;;4983967;28;20058;-85
2022/08/18 05:56:46;;;;;;;7.28;3.28;;;;;;;;;;5003698;28;20133;-85
2022/08/18 05:59:19;;;;;;;10.50;3.60;;;;;;;;;;5001926;28;20129;-85
2022/08/18 06:01:50;;;;;;;7.82;3.22;;;;;;;;;;5003105;28;20081;-86
2022/08/18 06:04:37;;;;;;;4.78;2.72;;;;;;;;;;4971245;28;20500;-85
2022/08/18 06:07:04;;;;;;;7.00;3.28;;;;;;;;;;4976894;28;20520;-85
2022/08/18 06:09:43;;;;;;;4.65;3.42;;;;;;;;;;4968121;28;20049;-85
2022/08/18 06:12:24;;;;;;;8.00;3.67;;;;;;;;;;4970763;28;20105;-85
2022/08/18 06:14:51;;;;;;;8.38;4.60;;;;;;;;;;4969358;28;20184;-85
2022/08/18 06:17:26;;;;;;;8.25;4.95;;;;;;;;;;5000116;28;20062;-86
2022/08/18 06:19:55;;;;;;;9.88;6.10;;;;;;;;;;4971194;28;20650;-85
2022/08/18 06:22:21;;;;;;;11.65;6.65;;;;;;;;;;4969469;28;20042;-86
2022/08/18 06:25:01;;;;;;;10.98;6.68;;;;;;;;;;5004280;28;20046;-85
2022/08/18 06:27:40;;;;;;;8.38;5.80;;;;;;;;;;4975412;28;20121;-85
2022/08/18 06:30:38;;;;;;;8.55;5.68;;;;;;;;;;4974412;28;20057;-85
2022/08/18 06:33:10;;;;;;;8.40;4.50;;;;;;;;;;4954325;28;20117;-85
2022/08/18 06:35:40;;;;;;;6.07;4.00;;;;;;;;;;5003840;28;20065;-85
2022/08/18 06:38:38;;;;;;;7.50;4.30;;;;;;;;;;4990075;28;20104;-86
2022/08/18 06:41:11;;;;;;;6.72;4.40;;;;;;;;;;4961525;28;20051;-84
2022/08/18 06:43:40;;;;;;;7.25;4.32;;;;;;;;;;4971902;28;20518;-85
2022/08/18 06:46:16;;;;;;;6.85;4.00;;;;;;;;;;4972813;28;20055;-85
2022/08/18 06:48:53;;;;;;;10.75;4.28;;;;;;;;;;4973675;28;20035;-85
2022/08/18 06:51:23;;;;;;;8.55;4.13;;;;;;;;;;5003782;28;20054;-85
2022/08/18 06:53:55;;;;;;;6.15;3.25;;;;;;;;;;5006130;28;20050;-85
2022/08/18 06:56:41;;;;;;;5.13;3.13;;;;;;;;;;4972687;28;20129;-84
2022/08/18 06:59:08;;;;;;;;;;;;;;;;;;4970672;28;20050;-85
2022/08/18 07:01:34;;;;;;;6.85;3.53;;;;;;;;;;4968018;28;19926;-84
2022/08/18 07:04:00;;;;;;;8.50;3.30;;;;;;;;;;4961675;28;20134;-85
2022/08/18 07:06:29;;;;;;;5.18;3.25;;;;;;;;;;4964586;28;20463;-85
2022/08/18 07:09:15;;;;;;;8.40;3.85;;;;;;;;;;4965905;28;20416;-84
2022/08/18 07:11:57;;;;;;;7.07;3.50;;;;;;;;;;4970756;28;20081;-85
2022/08/18 07:14:24;;;;;;;8.52;3.50;;;;;;;;;;4974900;28;20065;-84
2022/08/18 07:16:51;;;;;;;9.07;3.30;;;;;;;;;;5004578;28;20051;-86
2022/08/18 07:19:21;;;;;;;12.60;3.20;;;;;;;;;;4973457;28;20134;-86
2022/08/18 07:22:07;;;;;;;6.38;3.20;;;;;;;;;;5005218;28;20046;-87
2022/08/18 07:24:33;;;;;;;;;;;;;;;;;;4974853;28;20057;-86
2022/08/18 07:27:04;;;;;;;8.32;3.47;;;;;;;;;;4968083;28;20355;-89
2022/08/18 07:29:31;;;;;;;7.20;3.60;;;;;;;;;;5004180;28;20070;-86
2022/08/18 07:31:59;;;;;;;9.15;3.30;;;;;;;;;;4973426;28;20042;-85
2022/08/18 07:34:36;;;;;;;5.15;2.72;;;;;;;;;;4971103;28;20077;-86
2022/08/18 07:37:06;;;;;;;6.15;3.08;;;;;;;;;;4972238;28;20052;-86
2022/08/18 07:39:40;;;;;;;5.47;2.95;;;;;;;;;;4971576;28;20385;-85
2022/08/18 07:42:09;;;;;;;4.82;2.67;;;;;;;;;;4954587;28;20054;-85
2022/08/18 07:44:48;;;;;;;6.25;3.20;;;;;;;;;;4986498;28;20055;-85
2022/08/18 07:47:23;;;;;;;6.78;2.97;;;;;;;;;;4972048;28;20477;-85
2022/08/18 07:49:49;;;;;;;3.83;2.20;;;;;;;;;;4971298;28;20528;-85
2022/08/18 07:52:25;;;;;;;5.43;2.53;;;;;;;;;;4972040;28;20050;-85
2022/08/18 07:54:51;;;;;;;;;;;;;;;;;;4972641;28;20519;-85
2022/08/18 07:57:28;;;;;;;5.30;3.10;;;;;;;;;;4972187;28;19922;-85
2022/08/18 07:59:54;;;;;;;7.10;2.95;;;;;;;;;;4972559;28;20127;-85
2022/08/18 08:02:20;;;;;;;6.78;3.00;;;;;;;;;;4973807;28;20133;-85
2022/08/18 08:04:46;;;;;;;11.13;3.58;;;;;;;;;;4971916;28;20109;-87
2022/08/18 08:07:14;;;;;;;6.88;2.97;;;;;;;;;;4985896;28;20069;-84
2022/08/18 08:09:40;;;;;;;6.70;2.92;;;;;;;;;;4971911;28;20047;-84
2022/08/18 08:12:23;;;;;;;5.68;2.85;;;;;;;;;;4972677;28;20082;-84
2022/08/18 08:14:50;;;;;;;5.22;2.63;;;;;;;;;;4971762;28;20049;-81
2022/08/18 08:17:16;;;;;;;4.57;2.55;;;;;;;;;;4970967;28;20051;-85
2022/08/18 08:19:51;;;;;;;6.03;2.70;;;;;;;;;;4969215;28;20158;-84
2022/08/18 08:22:38;;;;;;;6.00;2.65;;;;;;;;;;4969752;28;20046;-85
2022/08/18 08:25:04;;;;;;;;;;;;;;;;;;4972132;28;20051;-85
2022/08/18 08:27:36;;;;;;;4.70;2.65;;;;;;;;;;4972276;28;20012;-84
2022/08/18 08:30:17;;;;;;;5.68;2.55;;;;;;;;;;4972484;28;20515;-86
2022/08/18 08:33:02;;;;;;;5.78;3.10;;;;;;;;;;4995889;28;20074;-84
2022/08/18 08:35:47;;;;;;;7.72;2.88;;;;;;;;;;4992032;28;20507;-84
2022/08/18 08:38:16;;;;;;;5.35;2.42;;;;;;;;;;4999826;28;20139;-84
2022/08/18 08:40:53;;;;;;;5.80;2.47;;;;;;;;;;4969408;28;20046;-84
2022/08/18 08:43:22;;;;;;;4.38;2.40;;;;;;;;;;5019092;28;20054;-85
2022/08/18 08:45:52;;;;;;;8.07;2.72;;;;;;;;;;4970881;28;20503;-84
2022/08/18 08:48:27;;;;;;;3.33;2.30;;;;;;;;;;5003561;28;20130;-85
2022/08/18 08:50:57;;;;;;;2.83;2.13;;;;;;;;;;5008859;28;20427;-84
2022/08/18 08:53:31;;;;;;;4.35;2.20;;;;;;;;;;4976254;28;20157;-85
2022/08/18 08:56:00;;;;;;;7.93;2.50;;;;;;;;;;5006512;28;20047;-85
2022/08/18 08:58:28;;;;;;;4.25;2.13;;;;;;;;;;4967766;28;20042;-85
2022/08/18 09:00:56;;;;;;;3.42;2.58;;;;;;;;;;4967372;28;20149;-84
2022/08/18 09:03:30;;;;;;;5.03;2.40;;;;;;;;;;4967496;28;20169;-85
2022/08/18 09:05:59;;;;;;;5.10;2.70;;;;;;;;;;4994966;28;20382;-84
2022/08/18 09:08:31;;;;;;;5.47;3.38;;;;;;;;;;4965720;28;20047;-84
2022/08/18 09:11:09;;;;;;;3.47;2.95;;;;;;;;;;4998423;28;20062;-86
2022/08/18 09:13:54;;;;;;;6.63;3.08;;;;;;;;;;4966787;28;20092;-88
2022/08/18 09:16:20;;;;;;;3.33;2.25;;;;;;;;;;5000006;28;20047;-85
2022/08/18 09:18:55;;;;;;;5.13;2.60;;;;;;;;;;4968657;28;20043;-84
2022/08/18 09:21:39;;;;;;;4.32;2.63;;;;;;;;;;4998765;28;20055;-84
2022/08/18 09:24:26;;;;;;;4.18;2.08;;;;;;;;;;4967422;28;20054;-82
2022/08/18 09:27:04;;;;;;;5.60;2.35;;;;;;;;;;4967253;28;20046;-86
2022/08/18 09:29:48;;;;;;;3.85;2.10;;;;;;;;;;4998211;28;20047;-84
2022/08/18 09:32:21;;;;;;;3.72;2.10;;;;;;;;;;4966113;28;20074;-84
2022/08/18 09:34:47;;;;;;;9.57;2.25;;;;;;;;;;4966835;28;20050;-85
2022/08/18 09:37:22;;;;;;;4.38;2.00;;;;;;;;;;4967354;28;20289;-84
2022/08/18 09:42:56;;;;;;;6.75;2.08;;;;;;;;;;4999904;28;20051;-85
2022/08/18 09:45:28;;;;;;;4.95;2.13;;;;;;;;;;4967762;28;20069;-81
2022/08/18 09:47:55;;;;;;;3.50;2.00;;;;;;;;;;4967571;28;20050;-81
2022/08/18 09:50:27;;;;;;;2.95;1.85;;;;;;;;;;4968252;28;20046;-85
2022/08/18 09:52:56;;;;;;;7.90;2.42;;;;;;;;;;4972022;28;20043;-85
2022/08/18 09:55:22;;;;;;;4.03;2.03;;;;;;;;;;4986890;28;20555;-84
2022/08/18 09:58:08;;;;;;;4.20;2.50;;;;;;;;;;4970478;28;20070;-86
2022/08/18 10:00:34;;;;;;;5.53;2.75;;;;;;;;;;4976306;28;20042;-89
2022/08/18 10:03:02;;;;;;;3.55;2.40;;;;;;;;;;5003986;28;20138;-91
2022/08/18 10:05:29;;;;;;;5.05;2.10;;;;;;;;;;4975390;28;20088;-88
2022/08/18 10:08:07;;;;;;;2.72;2.10;;;;;;;;;;4974812;28;20042;-86
2022/08/18 10:10:46;;;;;;;3.05;2.33;;;;;;;;;;4994506;28;20408;-86
2022/08/18 10:13:18;;;;;;;5.30;2.10;;;;;;;;;;4990481;28;20400;-83
2022/08/18 10:16:24;;;;;;;2.92;2.20;;;;;;;;;;5006894;28;20053;-82
2022/08/18 10:19:00;;;;;;;3.78;2.35;;;;;;;;;;4990415;28;20078;-82
2022/08/18 10:21:28;;;;;;;2.78;2.20;;;;;;;;;;5007811;28;20046;-83
2022/08/18 10:24:09;;;;;;;3.38;2.10;;;;;;;;;;4991830;28;20149;-82
2022/08/18 10:26:37;;;;;;;4.30;2.40;;;;;;;;;;4992509;28;20121;-83
2022/08/18 10:29:04;;;;;;;4.57;2.42;;;;;;;;;;4990982;28;20505;-82
2022/08/18 10:31:31;;;;;;;4.10;2.30;;;;;;;;;;4991645;28;20082;-83
2022/08/18 10:33:59;;;;;;;2.80;2.00;;;;;;;;;;4991418;28;20052;-83
2022/08/18 10:36:45;;;;;;;3.63;2.20;;;;;;;;;;4975857;28;20062;-84
2022/08/18 10:39:37;;;;;;;5.57;2.78;;;;;;;;;;4986834;28;20046;-84
2022/08/18 10:42:06;;;;;;;7.30;2.97;;;;;;;;;;4982520;28;20523;-84
2022/08/18 10:44:35;;;;;;;5.07;2.60;;;;;;;;;;4990994;28;20053;-84
2022/08/18 10:47:01;;;;;;;3.72;2.40;;;;;;;;;;4991371;28;20514;-84
2022/08/18 10:49:30;;;;;;;6.05;2.33;;;;;;;;;;4993760;28;20146;-83
2022/08/18 10:52:05;;;;;;;4.85;2.40;;;;;;;;;;5006156;28;20064;-84
2022/08/18 10:54:38;;;;;;;3.45;2.38;;;;;;;;;;5004927;28;20089;-84
2022/08/18 10:57:14;;;;;;;3.58;2.47;;;;;;;;;;5004608;28;20448;-84
2022/08/18 10:59:51;;;;;;;3.35;2.20;;;;;;;;;;4971338;28;20047;-83
2022/08/18 11:02:37;;;;;;;3.55;2.38;;;;;;;;;;5005875;28;20089;-83
2022/08/18 11:05:11;;;;;;;3.40;2.25;;;;;;;;;;4967671;28;20059;-84
2022/08/18 11:07:41;;;;;;;2.92;2.63;;;;;;;;;;4971343;28;20050;-84
2022/08/18 11:10:34;;;;;;;4.05;2.58;;;;;;;;;;5005417;28;20088;-84
2022/08/18 11:13:04;;;;;;;2.63;2.35;;;;;;;;;;4974743;28;20047;-84
2022/08/18 11:15:33;;;;;;;4.38;2.70;;;;;;;;;;4973674;28;20050;-84
2022/08/18 11:18:15;;;;;;;4.25;2.38;;;;;;;;;;4973349;28;20444;-84
2022/08/18 11:20:42;;;;;;;3.58;2.50;;;;;;;;;;4975038;28;20050;-84
2022/08/18 11:23:13;;;;;;;3.25;2.40;;;;;;;;;;4974550;28;20054;-84
2022/08/18 11:25:40;;;;;;;6.05;2.85;;;;;;;;;;4974115;28;20616;-84
2022/08/18 11:28:20;;;;;;;3.25;2.58;;;;;;;;;;4972515;28;20110;-83
2022/08/18 11:30:49;;;;;;;2.72;2.10;;;;;;;;;;4974491;28;20050;-84
2022/08/18 11:33:17;;;;;;;4.80;2.63;;;;;;;;;;4974277;28;20125;-84
2022/08/18 11:35:51;;;;;;;3.95;2.50;;;;;;;;;;5005820;28;20476;-84
2022/08/18 11:38:20;;;;;;;3.08;2.63;;;;;;;;;;4972435;28;20086;-84
2022/08/18 11:40:49;;;;;;;3.85;2.40;;;;;;;;;;4972951;28;20039;-84
2022/08/18 11:43:17;;;;;;;5.28;2.80;;;;;;;;;;4973962;28;20050;-84
2022/08/18 11:45:46;;;;;;;3.90;2.50;;;;;;;;;;4974264;28;20139;-84
2022/08/18 11:48:27;;;;;;;3.85;2.65;;;;;;;;;;4971183;28;20055;-84
2022/08/18 11:51:03;;;;;;;3.45;2.25;;;;;;;;;;4973780;28;20034;-84
2022/08/18 11:53:32;;;;;;;3.72;2.50;;;;;;;;;;5005640;28;20058;-84
2022/08/18 11:56:13;;;;;;;4.32;2.90;;;;;;;;;;4985423;28;20537;-84
2022/08/18 11:58:45;;;;;;;3.47;2.70;;;;;;;;;;4971182;28;20054;-84
2022/08/18 12:01:32;;;;;;;4.00;2.80;;;;;;;;;;5004353;28;20400;-84
2022/08/18 12:04:07;;;;;;;3.95;2.50;;;;;;;;;;4972777;28;20404;-84
2022/08/18 12:06:34;;;;;;;6.72;2.90;;;;;;;;;;4973163;28;20488;-84
2022/08/18 12:09:15;;;;;;;3.97;2.50;;;;;;;;;;4972223;28;20050;-84
2022/08/18 12:11:53;;;;;;;4.22;2.90;;;;;;;;;;5021823;28;20654;-85
2022/08/18 12:14:23;;;;;;;4.45;2.70;;;;;;;;;;5011722;28;20097;-84
2022/08/18 12:16:50;;;;;;;4.82;3.10;;;;;;;;;;5003320;28;20055;-84
2022/08/18 12:19:16;;;;;;;6.60;3.45;;;;;;;;;;4972614;28;20049;-83
2022/08/18 12:21:50;;;;;;;4.95;3.28;;;;;;;;;;4972804;28;20047;-84
2022/08/18 12:24:34;;;;;;;4.38;2.80;;;;;;;;;;4973587;28;20046;-84
2022/08/18 12:27:00;;;;;;;4.70;3.00;;;;;;;;;;4969301;28;20511;-84
2022/08/18 12:29:26;;;;;;;3.92;2.90;;;;;;;;;;4973242;28;20050;-86
2022/08/18 12:31:54;;;;;;;3.25;2.53;;;;;;;;;;4973548;28;20066;-84
2022/08/18 12:34:25;;;;;;;5.15;3.00;;;;;;;;;;4969359;28;20097;-84
2022/08/18 12:36:53;;;;;;;4.47;3.00;;;;;;;;;;5002982;28;20043;-84
2022/08/18 12:39:19;;;;;;;4.38;2.80;;;;;;;;;;5003488;28;20047;-85
2022/08/18 12:41:45;;;;;;;4.90;2.78;;;;;;;;;;5006916;28;20081;-88
2022/08/18 12:44:12;;;;;;;4.18;2.60;;;;;;;;;;4978380;28;20055;-83
2022/08/18 12:46:38;;;;;;;4.32;2.78;;;;;;;;;;4972942;28;20458;-83
2022/08/18 12:49:05;;;;;;;3.50;2.25;;;;;;;;;;4972670;28;20419;-83
2022/08/18 12:51:31;;;;;;;4.38;2.30;;;;;;;;;;4971096;28;20594;-83
2022/08/18 12:53:57;;;;;;;5.82;3.47;;;;;;;;;;4971827;28;20126;-83
2022/08/18 12:56:25;;;;;;;5.38;2.80;;;;;;;;;;4973028;28;20125;-83
2022/08/18 12:58:51;;;;;;;6.50;3.30;;;;;;;;;;4972678;28;20500;-84
2022/08/18 13:01:18;;;;;;;4.95;2.90;;;;;;;;;;5002246;28;20049;-84
2022/08/18 13:03:45;;;;;;;5.32;3.00;;;;;;;;;;5003915;28;20553;-85
2022/08/18 13:06:11;;;;;;;4.43;2.80;;;;;;;;;;4972332;28;20042;-84
2022/08/18 13:08:37;;;;;;;4.93;3.10;;;;;;;;;;5003958;28;20046;-85
2022/08/18 13:11:09;;;;;;;5.85;2.83;;;;;;;;;;5003954;28;20057;-85
2022/08/18 13:13:35;;;;;;;3.65;2.60;;;;;;;;;;4984256;28;20399;-85
2022/08/18 13:16:01;;;;;;;3.83;2.90;;;;;;;;;;5020117;28;20047;-85
2022/08/18 13:18:27;;;;;;;4.47;3.00;;;;;;;;;;4972857;28;20543;-85
2022/08/18 13:20:53;;;;;;;7.53;3.05;;;;;;;;;;4972376;28;20078;-85
2022/08/18 13:23:19;;;;;;;3.28;2.60;;;;;;;;;;4971626;28;20492;-88
2022/08/18 13:25:46;;;;;;;4.80;2.63;;;;;;;;;;4971861;28;20101;-84
2022/08/18 13:28:12;;;;;;;6.30;3.22;;;;;;;;;;5003348;28;20042;-85
2022/08/18 13:30:38;;;;;;;3.40;2.88;;;;;;;;;;4971260;28;20046;-89
2022/08/18 13:33:04;;;;;;;3.78;2.63;;;;;;;;;;4969728;28;20043;-84
2022/08/18 13:35:30;;;;;;;3.17;2.70;;;;;;;;;;4972351;28;20078;-85
2022/08/18 13:37:56;;;;;;;3.58;2.70;;;;;;;;;;4972032;28;20070;-85
2022/08/18 13:40:22;;;;;;;4.93;3.00;;;;;;;;;;4972264;28;20510;-84
2022/08/18 13:42:48;;;;;;;4.95;2.85;;;;;;;;;;5001388;28;20046;-85
2022/08/18 13:45:17;;;;;;;4.65;2.50;;;;;;;;;;4971765;28;20055;-83
2022/08/18 13:47:43;;;;;;;3.63;2.70;;;;;;;;;;4972539;28;20094;-84
2022/08/18 13:50:10;;;;;;;3.95;2.85;;;;;;;;;;5003219;28;20184;-84
2022/08/18 13:52:36;;;;;;;4.28;2.78;;;;;;;;;;4970846;28;20054;-85
2022/08/18 13:55:03;;;;;;;4.07;3.00;;;;;;;;;;4971839;28;20081;-85
2022/08/18 13:57:30;;;;;;;5.10;3.10;;;;;;;;;;4972231;28;20150;-85
2022/08/18 13:59:57;;;;;;;5.22;3.03;;;;;;;;;;4972006;28;20054;-85
2022/08/18 14:02:23;;;;;;;3.85;2.88;;;;;;;;;;5001868;28;20444;-85
2022/08/18 14:04:50;;;;;;;4.45;2.90;;;;;;;;;;4971985;28;20039;-84
2022/08/18 14:07:18;;;;;;;6.43;3.22;;;;;;;;;;4972088;28;20047;-85
2022/08/18 14:09:44;;;;;;;4.45;3.10;;;;;;;;;;5003687;28;20057;-84
2022/08/18 14:12:17;;;;;;;4.00;2.90;;;;;;;;;;5001098;28;20121;-84
2022/08/18 14:14:43;;;;;;;6.82;4.28;;;;;;;;;;4971562;28;20049;-83
2022/08/18 14:17:09;;;;;;;5.88;3.15;;;;;;;;;;4971382;28;20043;-84
2022/08/18 14:27:50;;;;;;;3.97;3.03;;;;;;;;;;5003539;28;20066;-83
2022/08/18 14:30:17;;;;;;;5.32;3.35;;;;;;;;;;5002722;28;20093;-84
2022/08/18 14:32:44;;;;;;;5.78;2.90;;;;;;;;;;4970424;28;20078;-84
2022/08/18 14:35:11;;;;;;;8.23;3.10;;;;;;;;;;4971675;28;20709;-84
2022/08/18 14:37:37;;;;;;;4.35;3.17;;;;;;;;;;5002805;28;20404;-84
2022/08/18 14:40:03;;;;;;;4.22;2.90;;;;;;;;;;4985588;28;20057;-84
2022/08/18 14:42:29;;;;;;;9.48;3.35;;;;;;;;;;5002572;28;20039;-91
2022/08/18 14:44:57;;;;;;;4.32;2.80;;;;;;;;;;5007494;28;20058;-91
2022/08/18 14:47:26;;;;;;;5.00;2.75;;;;;;;;;;4978141;28;20094;-92
2022/08/18 14:49:52;;;;;;;4.85;2.90;;;;;;;;;;5009569;28;20180;-91
2022/08/18 14:52:18;;;;;;;6.72;3.17;;;;;;;;;;4992341;28;20062;-92
2022/08/18 14:54:45;;;;;;;5.30;3.20;;;;;;;;;;4977554;28;20047;-92
2022/08/18 14:57:11;;;;;;;4.63;3.00;;;;;;;;;;4977340;28;20649;-96
2022/08/18 14:59:37;;;;;;;5.38;3.08;;;;;;;;;;5009490;28;20047;-91
2022/08/18 15:02:04;;;;;;;3.80;2.63;;;;;;;;;;5008036;28;20109;-93
2022/08/18 15:04:30;;;;;;;6.50;3.25;;;;;;;;;;4977832;28;20040;-92
2022/08/18 15:06:56;;;;;;;5.38;3.08;;;;;;;;;;5008875;28;20078;-92
2022/08/18 15:09:22;;;;;;;4.35;3.00;;;;;;;;;;4975466;28;20085;-91
2022/08/18 15:11:49;;;;;;;5.15;3.30;;;;;;;;;;4978511;28;20039;-91
2022/08/18 15:14:16;;;;;;;5.00;3.30;;;;;;;;;;4984845;28;20051;-91
2022/08/18 15:16:42;;;;;;;4.28;3.17;;;;;;;;;;5014801;28;20073;-92
2022/08/18 15:19:08;;;;;;;4.53;3.10;;;;;;;;;;4983299;28;20042;-91